Time;durP1;ratioP1;P1;durP2;ratioP2;P2;SDS_P1;SDS_P2;PMS_P1;PMS_P2;Temp;Humidity;BMP_temperature;BMP_pressure;BME280_temperature;BME280_humidity;BME280_pressure;Samples;Min_cycle;Max_cycle;Signal;HPM_P1;HPM_P2
2023/06/14 00:02:08;;;;;;;3.92;2.20;;;;;;;;;;5061074;28;20040;-79
2023/06/14 00:04:34;;;;;;;3.40;2.20;;;;;;;;;;5057308;28;20024;-79
2023/06/14 00:07:00;;;;;;;4.53;2.38;;;;;;;;;;5076258;28;20418;-80
2023/06/14 00:09:25;;;;;;;3.78;2.50;;;;;;;;;;5080832;28;20103;-80
2023/06/14 00:11:51;;;;;;;5.63;2.30;;;;;;;;;;5068023;28;20024;-80
2023/06/14 00:14:16;;;;;;;4.22;2.05;;;;;;;;;;5076345;28;20111;-80
2023/06/14 00:16:42;;;;;;;6.15;2.35;;;;;;;;;;5064304;28;20113;-79
2023/06/14 00:19:10;;;;;;;4.97;2.50;;;;;;;;;;5063890;28;20025;-79
2023/06/14 00:21:36;;;;;;;4.85;2.20;;;;;;;;;;5058401;28;20399;-80
2023/06/14 00:24:02;;;;;;;5.38;2.50;;;;;;;;;;5054873;28;20051;-80
2023/06/14 00:26:27;;;;;;;3.67;2.15;;;;;;;;;;5076343;28;20469;-80
2023/06/14 00:28:53;;;;;;;4.18;2.40;;;;;;;;;;5054006;28;20028;-79
2023/06/14 00:31:19;;;;;;;5.40;2.80;;;;;;;;;;5054320;28;20103;-79
2023/06/14 00:33:44;;;;;;;4.28;2.50;;;;;;;;;;5057817;28;20047;-80
2023/06/14 00:36:10;;;;;;;4.50;2.30;;;;;;;;;;5063626;28;20119;-79
2023/06/14 00:38:36;;;;;;;3.88;2.15;;;;;;;;;;5069355;28;20097;-79
2023/06/14 00:41:01;;;;;;;4.50;2.30;;;;;;;;;;5072805;28;20118;-79
2023/06/14 00:43:26;;;;;;;4.47;2.50;;;;;;;;;;5054668;28;20035;-80
2023/06/14 00:45:52;;;;;;;3.65;2.33;;;;;;;;;;5080609;28;20046;-80
2023/06/14 00:48:18;;;;;;;7.72;2.20;;;;;;;;;;5056407;28;20064;-80
2023/06/14 00:50:45;;;;;;;6.30;2.33;;;;;;;;;;5074779;28;20028;-79
2023/06/14 00:53:15;;;;;;;4.55;2.35;;;;;;;;;;5057724;28;20036;-79
2023/06/14 00:55:40;;;;;;;7.38;2.40;;;;;;;;;;5061863;28;20043;-80
2023/06/14 00:58:06;;;;;;;4.03;2.30;;;;;;;;;;5057822;28;20472;-78
2023/06/14 01:00:31;;;;;;;4.13;2.20;;;;;;;;;;5072275;28;20043;-79
2023/06/14 01:02:56;;;;;;;6.32;2.30;;;;;;;;;;5060429;28;20093;-79
2023/06/14 01:05:23;;;;;;;6.03;2.30;;;;;;;;;;5076491;28;20104;-79
2023/06/14 01:08:10;;;;;;;4.68;2.30;;;;;;;;;;5056965;28;20349;-80
2023/06/14 01:10:55;;;;;;;3.63;2.38;;;;;;;;;;5054210;28;20021;-79
2023/06/14 01:13:27;;;;;;;4.45;2.30;;;;;;;;;;5075363;28;20051;-80
2023/06/14 01:15:54;;;;;;;4.80;2.20;;;;;;;;;;5064467;28;20055;-79
2023/06/14 01:18:19;;;;;;;5.03;2.35;;;;;;;;;;5070164;28;20503;-80
2023/06/14 01:20:49;;;;;;;4.32;2.58;;;;;;;;;;5074860;28;20111;-80
2023/06/14 01:23:16;;;;;;;6.75;2.28;;;;;;;;;;5051336;28;20042;-79
2023/06/14 01:25:44;;;;;;;4.15;2.25;;;;;;;;;;5058425;28;20028;-79
2023/06/14 01:28:11;;;;;;;5.32;2.03;;;;;;;;;;5068426;28;20047;-79
2023/06/14 01:30:45;;;;;;;4.90;2.20;;;;;;;;;;5057227;28;20028;-79
2023/06/14 01:33:19;;;;;;;5.10;2.50;;;;;;;;;;5078281;28;20032;-79
2023/06/14 01:35:49;;;;;;;4.00;1.85;;;;;;;;;;5056700;28;20054;-79
2023/06/14 01:38:15;;;;;;;3.55;2.10;;;;;;;;;;5076927;28;20032;-79
2023/06/14 01:40:44;;;;;;;4.40;2.50;;;;;;;;;;5070511;28;20380;-79
2023/06/14 01:43:11;;;;;;;5.07;2.40;;;;;;;;;;5056973;28;20032;-79
2023/06/14 01:45:37;;;;;;;4.75;2.10;;;;;;;;;;5048092;28;20101;-80
2023/06/14 01:48:04;;;;;;;3.28;2.15;;;;;;;;;;5078165;28;20028;-80
2023/06/14 01:50:31;;;;;;;3.65;2.20;;;;;;;;;;5080641;28;20024;-79
2023/06/14 01:52:56;;;;;;;4.40;2.35;;;;;;;;;;5064009;28;20534;-80
2023/06/14 01:55:21;;;;;;;5.60;2.40;;;;;;;;;;5059551;28;20024;-80
2023/06/14 01:57:47;;;;;;;5.80;2.47;;;;;;;;;;5062140;28;20069;-79
2023/06/14 02:00:14;;;;;;;4.63;2.30;;;;;;;;;;5061339;28;20059;-79
2023/06/14 02:02:40;;;;;;;4.03;2.42;;;;;;;;;;5074276;28;20028;-80
2023/06/14 02:05:06;;;;;;;4.88;2.10;;;;;;;;;;5063381;28;20028;-79
2023/06/14 02:07:31;;;;;;;4.57;2.28;;;;;;;;;;5077687;28;20028;-80
2023/06/14 02:09:56;;;;;;;4.20;2.33;;;;;;;;;;5073708;28;20016;-79
2023/06/14 02:12:22;;;;;;;6.43;2.30;;;;;;;;;;5074711;28;20029;-79
2023/06/14 02:14:48;;;;;;;5.07;2.10;;;;;;;;;;5074219;28;20466;-79
2023/06/14 02:17:13;;;;;;;4.72;2.40;;;;;;;;;;5081901;28;20039;-80
2023/06/14 02:19:39;;;;;;;4.35;2.40;;;;;;;;;;5061505;28;20020;-78
2023/06/14 02:22:04;;;;;;;5.88;2.42;;;;;;;;;;5057232;28;20077;-79
2023/06/14 02:24:30;;;;;;;4.68;2.38;;;;;;;;;;5078058;28;20034;-79
2023/06/14 02:26:55;;;;;;;4.45;2.10;;;;;;;;;;5057846;28;20174;-78
2023/06/14 02:29:20;;;;;;;5.80;2.35;;;;;;;;;;5081074;28;20486;-79
2023/06/14 02:31:48;;;;;;;5.10;2.42;;;;;;;;;;5058491;28;20087;-79
2023/06/14 02:34:14;;;;;;;4.22;2.17;;;;;;;;;;5073978;28;20086;-80
2023/06/14 02:36:41;;;;;;;4.07;2.53;;;;;;;;;;5054686;28;20039;-78
2023/06/14 02:39:10;;;;;;;8.05;2.47;;;;;;;;;;5055022;28;20029;-79
2023/06/14 02:41:35;;;;;;;5.45;2.47;;;;;;;;;;5057761;28;20031;-80
2023/06/14 02:44:01;;;;;;;3.22;2.20;;;;;;;;;;5064105;28;20403;-79
2023/06/14 02:46:26;;;;;;;6.38;2.30;;;;;;;;;;5060662;28;20028;-80
2023/06/14 02:48:51;;;;;;;5.65;2.20;;;;;;;;;;5063967;28;20024;-80
2023/06/14 02:51:17;;;;;;;8.32;2.97;;;;;;;;;;5060573;28;20043;-80
2023/06/14 02:53:43;;;;;;;5.53;2.17;;;;;;;;;;5055257;28;20032;-80
2023/06/14 02:56:09;;;;;;;4.05;2.33;;;;;;;;;;5072533;28;20019;-79
2023/06/14 02:58:36;;;;;;;4.25;2.20;;;;;;;;;;5075908;28;20025;-79
2023/06/14 03:01:03;;;;;;;3.88;2.35;;;;;;;;;;5057138;28;20059;-79
2023/06/14 03:03:29;;;;;;;3.55;2.35;;;;;;;;;;5058536;28;20031;-79
2023/06/14 03:05:54;;;;;;;4.28;2.22;;;;;;;;;;5058965;28;20392;-79
2023/06/14 03:08:20;;;;;;;5.28;2.20;;;;;;;;;;5077255;28;20021;-80
2023/06/14 03:10:46;;;;;;;4.03;2.22;;;;;;;;;;5061756;28;20033;-79
2023/06/14 03:13:13;;;;;;;4.93;2.20;;;;;;;;;;5071845;28;20035;-79
2023/06/14 03:15:38;;;;;;;4.57;2.20;;;;;;;;;;5075164;28;20051;-79
2023/06/14 03:18:04;;;;;;;5.28;2.30;;;;;;;;;;5060079;28;20048;-80
2023/06/14 03:20:32;;;;;;;4.57;2.58;;;;;;;;;;5076402;28;20091;-79
2023/06/14 03:23:02;;;;;;;4.70;2.25;;;;;;;;;;5076710;28;20403;-79
2023/06/14 03:25:29;;;;;;;5.70;1.75;;;;;;;;;;5064775;28;20020;-80
2023/06/14 03:27:55;;;;;;;5.00;2.25;;;;;;;;;;5081286;28;20086;-79
2023/06/14 03:30:20;;;;;;;6.95;2.20;;;;;;;;;;5053363;28;20131;-78
2023/06/14 03:32:45;;;;;;;5.80;2.22;;;;;;;;;;5058695;28;20391;-79
2023/06/14 03:35:16;;;;;;;3.17;1.90;;;;;;;;;;5071357;28;20047;-78
2023/06/14 03:37:42;;;;;;;4.80;2.35;;;;;;;;;;5054865;28;20039;-79
2023/06/14 03:40:08;;;;;;;5.28;2.15;;;;;;;;;;5058232;28;20028;-79
2023/06/14 03:42:34;;;;;;;5.47;2.20;;;;;;;;;;5059178;28;20024;-80
2023/06/14 03:44:59;;;;;;;3.92;2.10;;;;;;;;;;5056309;28;20028;-80
2023/06/14 03:47:25;;;;;;;7.03;2.40;;;;;;;;;;5059300;28;20017;-80
2023/06/14 03:49:50;;;;;;;5.53;2.10;;;;;;;;;;5060471;28;20037;-78
2023/06/14 03:52:17;;;;;;;3.70;2.17;;;;;;;;;;5064206;28;20035;-79
2023/06/14 03:54:44;;;;;;;3.33;2.20;;;;;;;;;;5077610;28;20027;-79
2023/06/14 03:57:10;;;;;;;4.97;2.00;;;;;;;;;;5059136;28;20028;-79
2023/06/14 03:59:36;;;;;;;3.80;2.00;;;;;;;;;;5073297;28;20124;-79
2023/06/14 04:02:02;;;;;;;4.13;2.17;;;;;;;;;;5073364;28;20543;-79
2023/06/14 04:04:29;;;;;;;4.78;2.03;;;;;;;;;;5061199;28;20028;-79
2023/06/14 04:06:58;;;;;;;4.95;2.33;;;;;;;;;;5057235;28;20053;-79
2023/06/14 04:09:24;;;;;;;4.82;2.30;;;;;;;;;;5074109;28;20028;-80
2023/06/14 04:11:52;;;;;;;4.65;2.30;;;;;;;;;;5054986;28;20707;-79
2023/06/14 04:14:18;;;;;;;4.93;2.10;;;;;;;;;;5075366;28;20518;-79
2023/06/14 04:16:44;;;;;;;5.72;2.40;;;;;;;;;;5075381;28;20103;-80
2023/06/14 04:19:10;;;;;;;5.22;2.35;;;;;;;;;;5078381;28;20103;-79
2023/06/14 04:21:35;;;;;;;6.93;2.20;;;;;;;;;;5078860;28;20107;-79
2023/06/14 04:24:02;;;;;;;6.32;2.20;;;;;;;;;;5074322;28;20039;-79
2023/06/14 04:26:33;;;;;;;4.30;2.13;;;;;;;;;;5058966;28;20111;-79
2023/06/14 04:29:01;;;;;;;4.05;1.88;;;;;;;;;;5075637;28;20021;-79
2023/06/14 04:31:29;;;;;;;4.82;2.10;;;;;;;;;;5052834;28;20031;-80
2023/06/14 04:33:54;;;;;;;7.82;2.20;;;;;;;;;;5058917;28;20024;-79
2023/06/14 04:36:20;;;;;;;3.90;2.00;;;;;;;;;;5056538;28;20085;-79
2023/06/14 04:38:46;;;;;;;4.53;1.95;;;;;;;;;;5073447;28;20032;-79
2023/06/14 04:41:12;;;;;;;6.97;2.55;;;;;;;;;;5055558;28;20025;-79
2023/06/14 04:43:38;;;;;;;6.70;2.10;;;;;;;;;;5061288;28;20034;-80
2023/06/14 04:46:05;;;;;;;5.70;2.33;;;;;;;;;;5063720;28;20424;-80
2023/06/14 04:48:32;;;;;;;4.93;2.20;;;;;;;;;;5053638;28;20452;-79
2023/06/14 04:50:57;;;;;;;5.95;2.13;;;;;;;;;;5072517;28;20158;-79
2023/06/14 04:53:23;;;;;;;4.43;2.30;;;;;;;;;;5056339;28;20161;-79
2023/06/14 04:55:50;;;;;;;4.15;2.17;;;;;;;;;;5060081;28;20093;-80
2023/06/14 04:58:16;;;;;;;4.78;2.20;;;;;;;;;;5054981;28;20027;-79
2023/06/14 05:00:43;;;;;;;3.08;1.90;;;;;;;;;;5073227;28;20024;-79
2023/06/14 05:03:09;;;;;;;6.35;2.00;;;;;;;;;;5059662;28;20020;-78
2023/06/14 05:05:34;;;;;;;4.82;2.40;;;;;;;;;;5063684;28;20472;-79
2023/06/14 05:08:00;;;;;;;4.72;2.38;;;;;;;;;;5077524;28;20404;-79
2023/06/14 05:10:25;;;;;;;4.88;2.47;;;;;;;;;;5063164;28;20024;-78
2023/06/14 05:12:52;;;;;;;4.57;2.30;;;;;;;;;;5059931;28;20089;-79
2023/06/14 05:15:18;;;;;;;5.55;2.20;;;;;;;;;;5056896;28;20368;-79
2023/06/14 05:17:52;;;;;;;3.35;1.98;;;;;;;;;;5072871;28;20090;-79
2023/06/14 05:20:18;;;;;;;3.42;2.00;;;;;;;;;;5063480;28;20039;-79
2023/06/14 05:22:43;;;;;;;5.43;2.50;;;;;;;;;;5074537;28;20024;-79
2023/06/14 05:25:09;;;;;;;7.50;2.67;;;;;;;;;;5056386;28;20023;-79
2023/06/14 05:27:35;;;;;;;3.50;2.30;;;;;;;;;;5081360;28;20020;-78
2023/06/14 05:30:01;;;;;;;4.72;2.20;;;;;;;;;;5058742;28;20472;-79
2023/06/14 05:32:26;;;;;;;5.80;2.33;;;;;;;;;;5063660;28;20025;-79
2023/06/14 05:34:51;;;;;;;5.05;2.25;;;;;;;;;;5074451;28;20084;-78
2023/06/14 05:37:17;;;;;;;7.22;2.47;;;;;;;;;;5079627;28;20029;-79
2023/06/14 05:39:42;;;;;;;3.95;2.60;;;;;;;;;;5061957;28;20026;-79
2023/06/14 05:42:08;;;;;;;5.80;2.33;;;;;;;;;;5058935;28;20024;-79
2023/06/14 05:44:33;;;;;;;5.32;2.33;;;;;;;;;;5064610;28;20146;-79
2023/06/14 05:46:59;;;;;;;4.50;2.40;;;;;;;;;;5059008;28;20016;-78
2023/06/14 05:49:24;;;;;;;5.15;2.70;;;;;;;;;;5076464;28;20067;-79
2023/06/14 05:51:51;;;;;;;4.05;2.53;;;;;;;;;;5076111;28;20025;-78
2023/06/14 05:54:16;;;;;;;6.35;2.35;;;;;;;;;;5083497;28;20064;-79
2023/06/14 05:56:42;;;;;;;5.68;2.40;;;;;;;;;;5059019;28;20067;-80
2023/06/14 05:59:07;;;;;;;5.10;2.50;;;;;;;;;;5060592;28;20032;-79
2023/06/14 06:01:33;;;;;;;4.22;2.47;;;;;;;;;;5079169;28;20035;-80
2023/06/14 06:03:59;;;;;;;5.72;2.38;;;;;;;;;;5080982;28;20030;-79
2023/06/14 06:06:25;;;;;;;5.72;2.30;;;;;;;;;;5077887;28;20111;-79
2023/06/14 06:08:50;;;;;;;3.85;2.20;;;;;;;;;;5061644;28;20071;-80
2023/06/14 06:11:15;;;;;;;4.53;2.80;;;;;;;;;;5057614;28;20055;-80
2023/06/14 06:13:41;;;;;;;4.78;2.70;;;;;;;;;;5063691;28;20024;-79
2023/06/14 06:16:06;;;;;;;4.43;2.63;;;;;;;;;;5059519;28;20032;-79
2023/06/14 06:18:31;;;;;;;6.75;2.60;;;;;;;;;;5076630;28;20033;-80
2023/06/14 06:20:57;;;;;;;5.43;2.85;;;;;;;;;;5057368;28;20035;-78
2023/06/14 06:23:22;;;;;;;5.03;2.25;;;;;;;;;;5058839;28;20047;-78
2023/06/14 06:25:47;;;;;;;4.50;2.45;;;;;;;;;;5055855;28;20024;-78
2023/06/14 06:28:13;;;;;;;4.97;2.80;;;;;;;;;;5050335;28;20028;-78
2023/06/14 06:30:38;;;;;;;5.93;2.58;;;;;;;;;;5077066;28;20020;-78
2023/06/14 06:33:04;;;;;;;5.00;2.55;;;;;;;;;;5059991;28;20551;-79
2023/06/14 06:35:30;;;;;;;4.43;2.40;;;;;;;;;;5067295;28;20024;-78
2023/06/14 06:37:56;;;;;;;7.05;3.13;;;;;;;;;;5060347;28;20016;-79
2023/06/14 06:40:21;;;;;;;5.45;2.60;;;;;;;;;;5057364;28;20453;-78
2023/06/14 06:42:47;;;;;;;7.25;2.90;;;;;;;;;;5072338;28;20028;-79
2023/06/14 06:45:12;;;;;;;7.22;2.83;;;;;;;;;;5073729;28;20054;-78
2023/06/14 06:47:37;;;;;;;5.40;2.80;;;;;;;;;;5076242;28;20032;-78
2023/06/14 06:50:03;;;;;;;5.00;2.72;;;;;;;;;;5062884;28;20099;-77
2023/06/14 06:52:29;;;;;;;5.03;2.55;;;;;;;;;;5058247;28;20032;-78
2023/06/14 06:54:55;;;;;;;6.75;2.78;;;;;;;;;;5070647;28;20035;-78
2023/06/14 06:57:22;;;;;;;6.43;2.83;;;;;;;;;;5060557;28;20625;-78
2023/06/14 06:59:48;;;;;;;7.13;2.58;;;;;;;;;;5077585;28;20461;-78
2023/06/14 07:02:13;;;;;;;5.22;2.72;;;;;;;;;;5083313;28;20031;-78
2023/06/14 07:04:39;;;;;;;5.15;2.75;;;;;;;;;;5073008;28;20035;-78
2023/06/14 07:07:04;;;;;;;5.78;2.65;;;;;;;;;;5078124;28;20024;-78
2023/06/14 07:09:30;;;;;;;6.72;2.75;;;;;;;;;;5075557;28;20415;-78
2023/06/14 07:11:55;;;;;;;6.18;2.60;;;;;;;;;;5063424;28;20016;-78
2023/06/14 07:14:22;;;;;;;5.47;2.60;;;;;;;;;;5073017;28;20040;-79
2023/06/14 07:16:49;;;;;;;3.42;2.33;;;;;;;;;;5076510;28;20028;-78
2023/06/14 07:19:14;;;;;;;5.88;3.30;;;;;;;;;;5078660;28;21023;-78
2023/06/14 07:21:40;;;;;;;4.63;2.80;;;;;;;;;;5080127;28;20028;-78
2023/06/14 07:24:08;;;;;;;4.13;2.60;;;;;;;;;;5060881;28;20452;-78
2023/06/14 07:26:35;;;;;;;4.60;2.47;;;;;;;;;;5080376;28;20027;-78
2023/06/14 07:29:00;;;;;;;4.05;2.40;;;;;;;;;;5055698;28;20023;-78
2023/06/14 07:31:26;;;;;;;4.68;2.70;;;;;;;;;;5075726;28;20028;-79
2023/06/14 07:33:51;;;;;;;4.22;2.38;;;;;;;;;;5061119;28;20036;-79
2023/06/14 07:36:17;;;;;;;4.43;2.50;;;;;;;;;;5079609;28;20031;-78
2023/06/14 07:38:43;;;;;;;5.93;2.95;;;;;;;;;;5081249;28;20020;-78
2023/06/14 07:41:08;;;;;;;6.60;2.30;;;;;;;;;;5058505;28;20114;-79
2023/06/14 07:43:34;;;;;;;4.13;2.40;;;;;;;;;;5074904;28;20031;-78
2023/06/14 07:45:59;;;;;;;4.38;2.33;;;;;;;;;;5074214;28;20032;-79
2023/06/14 07:48:25;;;;;;;5.68;2.40;;;;;;;;;;5074934;28;20048;-79
2023/06/14 07:50:50;;;;;;;5.68;2.60;;;;;;;;;;5054745;28;20456;-79
2023/06/14 07:53:16;;;;;;;4.25;2.38;;;;;;;;;;5074536;28;20021;-79
2023/06/14 07:55:43;;;;;;;4.60;2.40;;;;;;;;;;5075676;28;20036;-78
2023/06/14 07:58:08;;;;;;;6.57;2.45;;;;;;;;;;5073896;28;20025;-78
2023/06/14 08:00:33;;;;;;;5.03;2.53;;;;;;;;;;5076609;28;20043;-78
2023/06/14 08:02:59;;;;;;;3.17;2.13;;;;;;;;;;5076935;28;20048;-79
2023/06/14 08:05:28;;;;;;;3.33;2.30;;;;;;;;;;5081446;28;20024;-78
2023/06/14 08:07:55;;;;;;;4.93;2.20;;;;;;;;;;5076113;28;20047;-79
2023/06/14 08:10:21;;;;;;;6.97;2.10;;;;;;;;;;5077531;28;20101;-79
2023/06/14 08:12:48;;;;;;;4.07;2.20;;;;;;;;;;5080416;28;20052;-79
2023/06/14 08:15:13;;;;;;;3.38;2.05;;;;;;;;;;5072889;28;20458;-78
2023/06/14 08:17:39;;;;;;;4.28;2.17;;;;;;;;;;5076844;28;20028;-79
2023/06/14 08:20:05;;;;;;;4.07;2.15;;;;;;;;;;5061689;28;20032;-79
2023/06/14 08:22:33;;;;;;;4.40;2.10;;;;;;;;;;5083337;28;20020;-79
2023/06/14 08:25:02;;;;;;;4.22;2.03;;;;;;;;;;5072601;28;20495;-79
2023/06/14 08:27:27;;;;;;;6.85;2.20;;;;;;;;;;5073599;28;20024;-79
2023/06/14 08:29:53;;;;;;;3.88;2.08;;;;;;;;;;5077592;28;20077;-79
2023/06/14 08:32:19;;;;;;;3.53;2.00;;;;;;;;;;5062060;28;20110;-79
2023/06/14 08:34:44;;;;;;;3.25;1.63;;;;;;;;;;5078420;28;20024;-79
2023/06/14 08:37:10;;;;;;;2.92;1.70;;;;;;;;;;5059316;28;20051;-79
2023/06/14 08:39:35;;;;;;;2.92;1.55;;;;;;;;;;5080289;28;20055;-79
2023/06/14 08:42:06;;;;;;;2.80;1.40;;;;;;;;;;5079493;28;20020;-79
2023/06/14 08:44:32;;;;;;;5.60;1.40;;;;;;;;;;5063662;28;20562;-79
2023/06/14 08:46:59;;;;;;;2.58;1.35;;;;;;;;;;5076991;28;20103;-78
2023/06/14 08:49:24;;;;;;;2.20;1.30;;;;;;;;;;5061129;28;20040;-79
2023/06/14 08:51:57;;;;;;;2.70;1.30;;;;;;;;;;5075177;28;20028;-78
2023/06/14 08:54:24;;;;;;;3.58;1.30;;;;;;;;;;5063468;28;20033;-78
2023/06/14 08:56:51;;;;;;;2.90;1.08;;;;;;;;;;5077523;28;20045;-79
2023/06/14 08:59:18;;;;;;;2.53;1.30;;;;;;;;;;5082317;28;20023;-80
2023/06/14 09:01:45;;;;;;;6.03;1.02;;;;;;;;;;5077135;28;20029;-79
2023/06/14 09:04:10;;;;;;;2.72;1.15;;;;;;;;;;5088579;28;20063;-80
2023/06/14 09:06:36;;;;;;;2.60;0.90;;;;;;;;;;5063559;28;20517;-78
2023/06/14 09:09:04;;;;;;;4.03;1.10;;;;;;;;;;5079867;28;20030;-79
2023/06/14 09:11:30;;;;;;;2.45;1.00;;;;;;;;;;5063022;28;20024;-79
2023/06/14 09:13:56;;;;;;;3.38;1.00;;;;;;;;;;5068249;28;20464;-79
2023/06/14 09:16:21;;;;;;;2.45;0.80;;;;;;;;;;5080307;28;20035;-79
2023/06/14 09:18:47;;;;;;;2.30;0.90;;;;;;;;;;5062616;28;20509;-79
2023/06/14 09:21:14;;;;;;;1.27;0.95;;;;;;;;;;5069534;28;20020;-79
2023/06/14 09:23:44;;;;;;;2.30;1.20;;;;;;;;;;5070565;28;20028;-79
2023/06/14 09:26:12;;;;;;;4.68;1.10;;;;;;;;;;5068704;28;20024;-79
2023/06/14 09:28:45;;;;;;;2.60;1.10;;;;;;;;;;5083589;28;20429;-80
2023/06/14 09:31:16;;;;;;;1.58;0.98;;;;;;;;;;5078315;28;20016;-79
2023/06/14 09:33:47;;;;;;;2.75;1.00;;;;;;;;;;5078169;28;20396;-79
2023/06/14 09:36:16;;;;;;;4.07;1.20;;;;;;;;;;5084341;28;20020;-80
2023/06/14 09:38:41;;;;;;;2.67;1.05;;;;;;;;;;5062355;28;20078;-79
2023/06/14 09:41:06;;;;;;;3.17;1.02;;;;;;;;;;5068431;28;20024;-79
2023/06/14 09:43:33;;;;;;;1.27;1.00;;;;;;;;;;5064194;28;20028;-79
2023/06/14 09:46:00;;;;;;;2.63;1.10;;;;;;;;;;5078284;28;20069;-80
2023/06/14 09:48:26;;;;;;;1.88;0.93;;;;;;;;;;5064897;28;20060;-80
2023/06/14 09:50:55;;;;;;;8.43;1.83;;;;;;;;;;5078559;28;20071;-80
2023/06/14 09:53:24;;;;;;;1.80;1.20;;;;;;;;;;5075087;28;20480;-80
2023/06/14 09:55:52;;;;;;;2.55;1.10;;;;;;;;;;5083092;28;20635;-80
2023/06/14 09:58:20;;;;;;;3.17;1.35;;;;;;;;;;5076016;28;20074;-80
2023/06/14 10:00:47;;;;;;;2.00;1.20;;;;;;;;;;5078050;28;20032;-80
2023/06/14 10:03:16;;;;;;;3.70;1.27;;;;;;;;;;5077667;28;20021;-80
2023/06/14 10:05:45;;;;;;;3.35;1.30;;;;;;;;;;5080194;28;20483;-79
2023/06/14 10:08:16;;;;;;;3.90;1.25;;;;;;;;;;5062278;28;20024;-80
2023/06/14 10:10:42;;;;;;;4.68;1.40;;;;;;;;;;5083604;28;20074;-80
2023/06/14 10:13:08;;;;;;;2.55;1.20;;;;;;;;;;5060832;28;20504;-80
2023/06/14 10:15:52;;;;;;;1.77;1.17;;;;;;;;;;5059997;28;20024;-80
2023/06/14 10:18:48;;;;;;;1.70;1.10;;;;;;;;;;5075488;28;20025;-79
2023/06/14 10:21:21;;;;;;;2.75;1.20;;;;;;;;;;5075279;28;20032;-79
2023/06/14 10:23:47;;;;;;;3.78;1.42;;;;;;;;;;5075958;28;20357;-79
2023/06/14 10:26:23;;;;;;;1.98;1.13;;;;;;;;;;5080385;28;20066;-80
2023/06/14 10:29:08;;;;;;;2.25;1.13;;;;;;;;;;5063322;28;20027;-80
2023/06/14 10:31:42;;;;;;;3.90;1.20;;;;;;;;;;5059319;28;20063;-79
2023/06/14 10:34:08;;;;;;;5.03;1.20;;;;;;;;;;5058172;28;20032;-80
2023/06/14 10:36:36;;;;;;;2.42;1.25;;;;;;;;;;5079536;28;20375;-79
2023/06/14 10:39:15;;;;;;;1.63;1.10;;;;;;;;;;5061013;28;20063;-79
2023/06/14 10:41:41;;;;;;;2.65;1.20;;;;;;;;;;5060212;28;20502;-79
2023/06/14 10:44:12;;;;;;;2.10;1.13;;;;;;;;;;5064991;28;20365;-79
2023/06/14 10:46:45;;;;;;;2.00;1.13;;;;;;;;;;5060417;28;20392;-79
2023/06/14 10:49:11;;;;;;;1.70;1.05;;;;;;;;;;5060747;28;20046;-79
2023/06/14 10:51:45;;;;;;;3.58;1.20;;;;;;;;;;5081326;28;20024;-79
2023/06/14 10:54:12;;;;;;;3.15;1.30;;;;;;;;;;5059008;28;20066;-79
2023/06/14 10:56:38;;;;;;;5.07;1.27;;;;;;;;;;5077202;28;20031;-79
2023/06/14 10:59:03;;;;;;;2.00;1.10;;;;;;;;;;5058020;28;20020;-79
2023/06/14 11:02:10;;;;;;;3.22;1.27;;;;;;;;;;5060550;28;20051;-79
2023/06/14 11:04:48;;;;;;;2.50;1.20;;;;;;;;;;5064733;28;20039;-79
2023/06/14 11:07:38;;;;;;;2.28;1.30;;;;;;;;;;5062659;28;20032;-79
2023/06/14 11:10:24;;;;;;;2.92;1.30;;;;;;;;;;5085330;28;20158;-80
2023/06/14 11:12:51;;;;;;;2.22;1.10;;;;;;;;;;5058930;28;20035;-80
2023/06/14 11:15:17;;;;;;;3.42;1.27;;;;;;;;;;5073851;28;20029;-79
2023/06/14 11:17:56;;;;;;;2.15;1.27;;;;;;;;;;5081800;28;20035;-79
2023/06/14 11:20:25;;;;;;;1.73;1.20;;;;;;;;;;5081417;28;20027;-79
2023/06/14 11:22:52;;;;;;;2.35;1.00;;;;;;;;;;5081751;28;20436;-79
2023/06/14 11:25:17;;;;;;;1.48;1.00;;;;;;;;;;5072721;28;20139;-79
2023/06/14 11:27:43;;;;;;;1.77;1.10;;;;;;;;;;5054266;28;20111;-78
2023/06/14 11:30:09;;;;;;;1.88;1.23;;;;;;;;;;5077889;28;20025;-79
2023/06/14 11:32:36;;;;;;;1.80;1.23;;;;;;;;;;5059951;28;20024;-79
2023/06/14 11:35:02;;;;;;;1.73;1.20;;;;;;;;;;5077744;28;20036;-80
2023/06/14 11:37:31;;;;;;;1.88;1.08;;;;;;;;;;5060280;28;20021;-79
2023/06/14 11:39:57;;;;;;;5.82;1.20;;;;;;;;;;5061807;28;20118;-79
2023/06/14 11:42:23;;;;;;;3.13;1.15;;;;;;;;;;5075406;28;20106;-79
2023/06/14 11:44:49;;;;;;;1.70;1.00;;;;;;;;;;5074298;28;20556;-79
2023/06/14 11:47:15;;;;;;;2.38;1.20;;;;;;;;;;5061377;28;20121;-79
2023/06/14 11:49:40;;;;;;;2.08;1.15;;;;;;;;;;5078669;28;20094;-79
2023/06/14 11:52:06;;;;;;;2.28;1.10;;;;;;;;;;5058396;28;20443;-79
2023/06/14 11:54:35;;;;;;;2.28;1.20;;;;;;;;;;5058902;28;20024;-78
2023/06/14 11:57:00;;;;;;;1.98;1.00;;;;;;;;;;5073681;28;20028;-79
2023/06/14 11:59:27;;;;;;;2.22;1.33;;;;;;;;;;5059543;28;20092;-79
2023/06/14 12:01:56;;;;;;;3.42;1.20;;;;;;;;;;5062681;28;20542;-79
2023/06/14 12:04:26;;;;;;;1.80;1.10;;;;;;;;;;5077668;28;20027;-79
2023/06/14 12:06:53;;;;;;;2.15;1.30;;;;;;;;;;5056348;28;20062;-79
2023/06/14 12:09:19;;;;;;;5.25;1.52;;;;;;;;;;5078378;28;20495;-78
2023/06/14 12:11:45;;;;;;;4.32;1.20;;;;;;;;;;5054492;28;20051;-79
2023/06/14 12:14:10;;;;;;;1.83;1.20;;;;;;;;;;5060694;28;20051;-80
2023/06/14 12:16:38;;;;;;;2.55;1.30;;;;;;;;;;5079036;28;20028;-79
2023/06/14 12:19:17;;;;;;;2.50;1.20;;;;;;;;;;5056966;28;20031;-79
2023/06/14 12:21:47;;;;;;;4.00;1.30;;;;;;;;;;5056054;28;20060;-80
2023/06/14 12:24:12;;;;;;;6.50;1.30;;;;;;;;;;5082203;28;20031;-79
2023/06/14 12:26:39;;;;;;;4.72;1.17;;;;;;;;;;5056371;28;20046;-79
2023/06/14 12:29:06;;;;;;;2.28;1.40;;;;;;;;;;5057353;28;20043;-79
2023/06/14 12:31:31;;;;;;;2.83;1.20;;;;;;;;;;5075973;28;20056;-79
2023/06/14 12:33:56;;;;;;;3.42;1.10;;;;;;;;;;5057431;28;20074;-79
2023/06/14 12:36:22;;;;;;;3.15;1.38;;;;;;;;;;5073377;28;20047;-80
2023/06/14 12:38:47;;;;;;;3.30;1.40;;;;;;;;;;5076491;28;20028;-79
2023/06/14 12:41:14;;;;;;;3.08;1.20;;;;;;;;;;5055209;28;20036;-79
2023/06/14 12:43:39;;;;;;;3.85;1.20;;;;;;;;;;5059350;28;20367;-79
2023/06/14 12:46:05;;;;;;;2.92;1.23;;;;;;;;;;5076595;28;20059;-79
2023/06/14 12:48:31;;;;;;;3.45;1.40;;;;;;;;;;5058390;28;20024;-79
2023/06/14 12:50:57;;;;;;;3.08;1.20;;;;;;;;;;5059272;28;20167;-79
2023/06/14 12:53:23;;;;;;;2.85;1.20;;;;;;;;;;5058434;28;20167;-79
2023/06/14 12:55:48;;;;;;;2.67;1.30;;;;;;;;;;5076944;28;20106;-79
2023/06/14 12:58:13;;;;;;;2.72;1.35;;;;;;;;;;5053046;28;21069;-79
2023/06/14 13:00:39;;;;;;;2.63;1.33;;;;;;;;;;5057830;28;20032;-80
2023/06/14 13:03:05;;;;;;;2.58;1.20;;;;;;;;;;5075364;28;20028;-79
2023/06/14 13:05:33;;;;;;;4.22;1.10;;;;;;;;;;5059659;28;20032;-79
2023/06/14 13:07:59;;;;;;;2.13;1.30;;;;;;;;;;5074711;28;20036;-79
2023/06/14 13:10:25;;;;;;;2.40;1.27;;;;;;;;;;5074290;28;20028;-79
2023/06/14 13:12:50;;;;;;;1.92;1.15;;;;;;;;;;5057278;28;20115;-79
2023/06/14 13:15:15;;;;;;;3.60;1.30;;;;;;;;;;5054794;28;20499;-79
2023/06/14 13:17:41;;;;;;;3.05;1.20;;;;;;;;;;5078527;28;20137;-78
2023/06/14 13:20:08;;;;;;;4.57;1.67;;;;;;;;;;5080676;28;20004;-75
2023/06/14 13:22:36;;;;;;;3.28;1.23;;;;;;;;;;5087168;28;20035;-75
2023/06/14 13:25:02;;;;;;;3.63;1.27;;;;;;;;;;5097830;28;20009;-75
2023/06/14 13:27:28;;;;;;;5.53;1.20;;;;;;;;;;5083333;28;20040;-74
2023/06/14 13:29:54;;;;;;;3.15;1.20;;;;;;;;;;5088618;28;20030;-76
2023/06/14 13:32:22;;;;;;;1.88;1.10;;;;;;;;;;5088481;28;20028;-78
2023/06/14 13:34:47;;;;;;;3.22;1.10;;;;;;;;;;5101567;28;20244;-74
2023/06/14 13:37:13;;;;;;;1.50;1.00;;;;;;;;;;5099766;28;20040;-74
2023/06/14 13:39:39;;;;;;;2.90;1.17;;;;;;;;;;5101435;28;20024;-74
2023/06/14 13:42:04;;;;;;;2.45;0.90;;;;;;;;;;5102806;28;20024;-75
2023/06/14 13:44:30;;;;;;;2.40;1.00;;;;;;;;;;5098695;28;20024;-73
2023/06/14 13:46:55;;;;;;;1.90;1.10;;;;;;;;;;5089642;28;20020;-74
2023/06/14 13:49:20;;;;;;;1.88;1.02;;;;;;;;;;5088872;28;20036;-78
2023/06/14 13:51:46;;;;;;;2.15;0.90;;;;;;;;;;5100287;28;20035;-77
2023/06/14 13:54:15;;;;;;;1.73;1.00;;;;;;;;;;5082681;28;20029;-75
2023/06/14 13:56:41;;;;;;;1.42;0.95;;;;;;;;;;5104128;28;20019;-77
2023/06/14 13:59:06;;;;;;;1.60;0.93;;;;;;;;;;5086156;28;20028;-76
2023/06/14 14:01:32;;;;;;;2.30;0.80;;;;;;;;;;5080509;28;20093;-76
2023/06/14 14:03:58;;;;;;;1.98;0.95;;;;;;;;;;5080474;28;20024;-73
2023/06/14 14:06:24;;;;;;;4.35;1.10;;;;;;;;;;5107630;28;20025;-74
2023/06/14 14:08:49;;;;;;;3.78;1.00;;;;;;;;;;5089975;28;20023;-75
2023/06/14 14:11:16;;;;;;;1.63;0.90;;;;;;;;;;5097235;28;20024;-75
2023/06/14 14:13:42;;;;;;;6.85;0.95;;;;;;;;;;5080916;28;20048;-75
2023/06/14 14:16:07;;;;;;;5.05;0.90;;;;;;;;;;5081209;28;20021;-76
2023/06/14 14:18:33;;;;;;;1.30;0.85;;;;;;;;;;5083071;28;20032;-74
2023/06/14 14:21:00;;;;;;;1.35;0.82;;;;;;;;;;5100423;28;20021;-73
2023/06/14 14:23:26;;;;;;;2.50;0.90;;;;;;;;;;5083142;28;20019;-75
2023/06/14 14:25:51;;;;;;;2.63;0.93;;;;;;;;;;5102024;28;20055;-75
2023/06/14 14:28:19;;;;;;;1.23;0.85;;;;;;;;;;5096297;28;20027;-77
2023/06/14 14:30:44;;;;;;;1.77;0.90;;;;;;;;;;5084968;28;20052;-76
2023/06/14 14:33:15;;;;;;;2.65;0.68;;;;;;;;;;5084342;28;20039;-79
2023/06/14 14:35:41;;;;;;;4.13;0.95;;;;;;;;;;5098754;28;20033;-78
2023/06/14 14:38:06;;;;;;;1.73;1.00;;;;;;;;;;5101954;28;20052;-78
2023/06/14 14:40:32;;;;;;;3.50;1.20;;;;;;;;;;5103583;28;20046;-75
2023/06/14 14:42:57;;;;;;;1.33;0.90;;;;;;;;;;5102668;28;20028;-74